Time;durP1;ratioP1;P1;durP2;ratioP2;P2;SDS_P1;SDS_P2;PMS_P1;PMS_P2;Temp;Humidity;BMP_temperature;BMP_pressure;BME280_temperature;BME280_humidity;BME280_pressure;Samples;Min_cycle;Max_cycle;Signal;HPM_P1;HPM_P2
2021/05/19 00:01:11;;;;;;;4.58;4.17;;;;;;;13.36;62.12;94210.01;823995;71;30268;-76
2021/05/19 00:16:16;;;;;;;3.62;3.17;;;;;;;13.34;62.42;94207.43;828320;71;32689;-76
2021/05/19 00:31:17;;;;;;;4.65;3.20;;;;;;;13.25;63.03;94214.00;827484;71;32725;-79
2021/05/19 00:46:10;;;;;;;6.05;4.30;;;;;;;13.03;63.83;94202.53;834036;71;30255;-75
2021/05/19 01:01:09;;;;;;;2.58;2.27;;;;;;;12.76;63.81;94202.84;828095;71;30937;-75
2021/05/19 01:16:08;;;;;;;3.70;2.62;;;;;;;12.70;64.43;94194.86;828315;71;29358;-76
2021/05/19 01:31:10;;;;;;;4.70;4.30;;;;;;;12.67;64.48;94206.75;828184;71;29982;-75
2021/05/19 01:46:10;;;;;;;4.97;3.95;;;;;;;12.65;65.20;94194.98;827992;71;30033;-75
2021/05/19 02:01:15;;;;;;;3.20;3.00;;;;;;;12.54;65.87;94205.81;828945;71;32710;-78
2021/05/19 02:16:14;;;;;;;2.90;2.70;;;;;;;12.48;65.84;94191.80;827490;71;33213;-75
2021/05/19 02:31:14;;;;;;;2.92;2.62;;;;;;;12.31;65.97;94189.91;827341;71;32685;-76
2021/05/19 02:46:09;;;;;;;3.52;2.80;;;;;;;12.17;66.83;94163.17;828722;71;30081;-80
2021/05/19 03:01:47;;;;;;;4.22;2.72;;;;;;;12.02;67.09;94169.63;826359;71;29722;-76
2021/05/19 03:16:14;;;;;;;3.30;3.10;;;;;;;12.03;67.30;94190.89;827592;71;32842;-77
2021/05/19 03:31:11;;;;;;;5.15;3.67;;;;;;;14.00;63.63;94193.41;827962;71;30618;-77
2021/05/19 03:46:09;;;;;;;3.50;3.10;;;;;;;16.08;57.57;94189.55;828198;71;29924;-75
2021/05/19 04:01:08;;;;;;;10.70;4.03;;;;;;;18.05;52.57;94179.75;828333;71;30476;-77
2021/05/19 04:16:15;;;;;;;4.85;4.45;;;;;;;19.46;48.97;94180.31;833919;71;32688;-76
2021/05/19 04:31:16;;;;;;;5.87;5.22;;;;;;;19.51;47.34;94183.27;833984;71;32670;-78
2021/05/19 04:46:09;;;;;;;5.67;5.17;;;;;;;20.38;46.87;94200.96;828105;71;30268;-75
2021/05/19 05:01:17;;;;;;;6.12;5.58;;;;;;;22.23;42.57;94181.47;827789;71;33101;-76
2021/05/19 05:16:08;;;;;;;6.30;5.10;;;;;;;22.02;40.90;94156.10;828433;71;29685;-77
2021/05/19 05:31:10;;;;;;;5.33;4.83;;;;;;;21.51;41.46;94176.22;828328;71;30274;-76
2021/05/19 05:46:09;;;;;;;4.92;4.47;;;;;;;22.15;41.00;94188.08;828404;71;30210;-76
2021/05/19 06:01:15;;;;;;;6.03;4.50;;;;;;;23.95;37.58;94181.80;828536;71;32809;-77
2021/05/19 06:16:08;;;;;;;6.90;4.53;;;;;;;23.37;37.14;94179.51;834102;71;28666;-75
2021/05/19 06:31:14;;;;;;;5.20;4.70;;;;;;;23.57;35.90;94174.61;813219;71;31840;-76
2021/05/19 06:46:08;;;;;;;5.97;4.90;;;;;;;23.91;35.65;94117.29;829265;71;28753;-75
2021/05/19 07:01:09;;;;;;;6.17;5.00;;;;;;;23.28;36.73;94135.51;828180;71;29259;-76
2021/05/19 07:16:09;;;;;;;5.03;4.60;;;;;;;21.75;39.14;94130.08;828693;71;29048;-76
2021/05/19 07:31:14;;;;;;;6.53;4.67;;;;;;;21.73;40.49;94100.30;827688;71;31698;-76
2021/05/19 07:46:09;;;;;;;4.13;3.67;;;;;;;21.48;39.67;94070.14;828315;71;29301;-77
2021/05/19 08:16:09;;;;;;;6.60;5.40;;;;;;;21.51;40.55;94055.28;828281;71;28619;-77
2021/05/19 08:31:15;;;;;;;5.10;4.60;;;;;;;23.47;37.08;94054.06;827482;71;31745;-77
2021/05/19 08:46:12;;;;;;;3.23;2.90;;;;;;;24.81;34.15;94022.69;835432;71;30441;-76
2021/05/19 09:01:50;;;;;;;3.43;3.13;;;;;;;26.69;31.53;94024.16;829323;71;29258;-76
2021/05/19 09:16:10;;;;;;;4.33;3.73;;;;;;;26.82;31.66;94007.64;828314;71;29305;-76
2021/05/19 09:31:22;;;;;;;5.47;4.20;;;;;;;26.76;30.55;165728.20;827527;71;31645;-78
2021/05/19 10:01:09;;;;;;;3.13;2.77;;;;;;;24.48;34.72;93985.05;831260;71;29823;-77
2021/05/19 10:16:28;;;;;;;3.13;2.80;;;;;;;24.10;35.55;93962.75;824036;71;31678;-79
2021/05/19 10:31:33;;;;;;;4.37;3.70;;;;;;;23.92;36.12;93925.84;829396;71;29308;-77
2021/05/19 10:46:11;;;;;;;3.80;3.27;;;;;;;23.17;36.10;93909.26;828646;71;29208;-77
2021/05/19 11:01:10;;;;;;;3.27;2.80;;;;;;;24.47;35.11;93866.83;834078;71;28649;-77
2021/05/19 11:16:14;;;;;;;4.50;2.70;;;;;;;25.22;32.77;93855.61;828180;71;29729;-76
2021/05/19 11:31:17;;;;;;;2.50;2.30;;;;;;;25.05;33.14;93843.84;829124;71;29232;-76
2021/05/19 11:46:08;;;;;;;5.10;2.30;;;;;;;25.17;31.85;93818.44;828228;71;28775;-78
2021/05/19 12:01:10;;;;;;;3.33;2.70;;;;;;;25.65;31.17;123554.15;828019;71;29272;-76
2021/05/19 12:16:32;;;;;;;2.80;2.33;;;;;;;25.09;31.11;93774.02;828053;71;28821;-77
2021/05/19 12:31:29;;;;;;;2.40;1.90;;;;;;;25.83;29.81;93747.52;827485;71;32302;-75
2021/05/19 12:46:15;;;;;;;1.90;1.80;;;;;;;26.42;26.70;93742.87;833922;71;29277;-75
2021/05/19 13:01:15;;;;;;;1.90;1.67;;;;;;;26.62;25.87;93707.98;828388;71;32598;-78
2021/05/19 13:16:13;;;;;;;1.53;1.40;;;;;;;26.84;24.22;93716.47;828259;71;29280;-76
2021/05/19 13:31:11;;;;;;;1.80;1.70;;;;;;;27.15;21.46;93698.98;828442;71;28713;-76
2021/05/19 13:46:07;;;;;;;1.77;1.47;;;;;;;;;;828149;71;28689;-75
2021/05/19 14:01:09;;;;;;;1.93;1.63;;;;;;;27.17;21.72;93672.98;829190;71;29237;-75
2021/05/19 14:16:27;;;;;;;1.80;1.70;;;;;;;22.75;22.19;93067.61;828092;71;29226;-75
2021/05/19 14:31:07;;;;;;;1.93;1.37;;;;;;;;;;828453;71;27634;-75
2021/05/19 15:01:53;;;;;;;3.50;3.20;;;;;;;26.05;30.76;93633.72;814684;71;30855;-76
2021/05/19 15:16:15;;;;;;;5.20;3.33;;;;;;;25.93;31.86;93614.13;825450;71;32754;-77
2021/05/19 15:31:09;;;;;;;1.90;1.80;;;;;;;25.69;27.20;93589.11;828761;71;29702;-79
2021/05/19 15:46:17;;;;;;;12.07;7.97;;;;;;;25.22;25.64;93588.41;822202;70;32681;-78
2021/05/19 21:01:53;;;;;;;2.60;2.40;;;;;;;18.01;55.89;93639.40;827447;71;33189;-76
2021/05/19 21:16:14;;;;;;;3.58;2.70;;;;;;;17.79;55.57;93654.75;834262;71;32676;-77
2021/05/19 21:31:14;;;;;;;2.90;2.70;;;;;;;17.55;55.97;93687.68;835062;71;32761;-78
2021/05/19 21:46:15;;;;;;;4.62;2.85;;;;;;;17.38;57.46;93694.20;827766;71;32758;-74
2021/05/19 22:01:16;;;;;;;4.17;2.65;;;;;;;17.21;59.17;93687.42;828039;71;33126;-75
2021/05/19 22:16:21;;;;;;;5.70;2.77;;;;;;;17.04;60.40;93683.31;828858;71;29848;-75
2021/05/19 22:31:11;;;;;;;5.80;2.98;;;;;;;16.89;60.75;93684.91;828290;71;29647;-76
2021/05/19 22:46:18;;;;;;;3.37;3.08;;;;;;;16.77;61.83;93671.19;835711;71;32691;-78
2021/05/19 23:01:09;;;;;;;3.35;3.00;;;;;;;16.71;61.89;93620.16;834129;71;29766;-77
2021/05/19 23:16:12;;;;;;;3.55;2.52;;;;;;;16.69;61.29;93619.18;834038;71;32064;-76
2021/05/19 23:31:08;;;;;;;3.10;2.70;;;;;;;16.69;60.47;93621.06;824438;71;29731;-76
2021/05/19 23:46:09;;;;;;;4.85;2.87;;;;;;;16.69;64.27;93621.83;833453;71;30315;-79
